createdAt,value
2022-10-22T00:00:47.044Z,22.35
2022-10-22T00:05:48.608Z,24.20
2022-10-22T00:10:50.166Z,22.10
2022-10-22T00:15:51.724Z,22.23
2022-10-22T00:20:53.247Z,24.77
2022-10-22T00:25:55.254Z,23.25
2022-10-22T00:31:00.512Z,23.23
2022-10-22T00:36:02.067Z,25.23
2022-10-22T00:41:03.603Z,25.63
2022-10-22T00:46:05.134Z,25.13
2022-10-22T00:51:08.040Z,28.38
2022-10-22T00:56:10.231Z,24.10
2022-10-22T01:01:16.913Z,26.13
2022-10-22T01:06:29.938Z,29.88
2022-10-22T01:11:43.528Z,26.30
2022-10-22T01:17:08.614Z,26.80
2022-10-22T01:22:26.214Z,24.95
2022-10-22T01:27:52.641Z,27.13
2022-10-22T01:33:03.769Z,28.25
2022-10-22T01:38:09.054Z,27.13
2022-10-22T01:43:11.445Z,25.15
2022-10-22T01:48:26.883Z,25.33
2022-10-22T01:53:41.251Z,26.42
2022-10-22T01:59:07.161Z,27.02
2022-10-22T02:04:19.824Z,28.02
2022-10-22T02:09:22.803Z,26.58
2022-10-22T02:14:25.638Z,29.38
2022-10-22T02:19:39.337Z,27.45
2022-10-22T02:24:40.880Z,24.50
2022-10-22T02:29:52.162Z,26.55
2022-10-22T02:34:54.611Z,28.40
2022-10-22T02:39:56.420Z,25.80
2022-10-22T02:44:57.898Z,27.73
2022-10-22T02:49:59.411Z,29.75
2022-10-22T02:55:00.939Z,28.83
2022-10-22T03:00:02.464Z,28.95
2022-10-22T03:05:05.004Z,25.58
2022-10-22T03:10:07.280Z,27.02
2022-10-22T03:15:09.075Z,25.38
2022-10-22T03:20:10.628Z,25.73
2022-10-22T03:25:15.314Z,24.10
2022-10-22T03:30:16.941Z,30.98
2022-10-22T03:35:18.469Z,26.40
2022-10-22T03:40:20.368Z,25.98
2022-10-22T03:45:21.900Z,26.58
2022-10-22T03:50:23.392Z,27.10
2022-10-22T03:55:24.955Z,27.45
2022-10-22T04:00:26.450Z,23.35
2022-10-22T04:05:27.959Z,25.92
2022-10-22T04:10:29.504Z,28.35
2022-10-22T04:15:32.513Z,26.33
2022-10-22T04:20:34.031Z,29.90
2022-10-22T04:25:35.567Z,28.55
2022-10-22T04:30:37.106Z,25.30
2022-10-22T04:35:39.933Z,25.85
2022-10-22T04:40:41.551Z,25.40
2022-10-22T04:45:43.065Z,26.85
2022-10-22T04:50:44.607Z,24.42
2022-10-22T04:55:46.103Z,26.27
2022-10-22T05:00:47.650Z,25.88
2022-10-22T05:05:49.160Z,25.48
2022-10-22T05:10:50.678Z,26.05
2022-10-22T05:15:52.250Z,23.55
2022-10-22T05:20:53.750Z,26.67
2022-10-22T05:25:55.241Z,26.10
2022-10-22T05:30:58.123Z,24.40
2022-10-22T05:36:00.968Z,23.67
2022-10-22T05:41:10.868Z,25.23
2022-10-22T05:46:18.682Z,25.88
2022-10-22T05:51:24.264Z,22.20
2022-10-22T05:56:27.275Z,23.17
2022-10-22T06:01:33.571Z,24.98
2022-10-22T06:06:41.990Z,26.65
2022-10-22T06:11:43.658Z,19.85
2022-10-22T06:16:45.307Z,22.33
2022-10-22T06:21:47.582Z,21.25
2022-10-22T06:26:52.549Z,23.63
2022-10-22T06:31:54.087Z,24.73
2022-10-22T06:36:55.591Z,23.25
2022-10-22T06:41:57.142Z,22.20
2022-10-22T06:46:58.674Z,23.95
2022-10-22T06:52:00.219Z,24.55
2022-10-22T06:57:01.777Z,24.85
2022-10-22T07:02:03.323Z,26.17
2022-10-22T07:07:04.851Z,24.65
2022-10-22T07:12:06.651Z,19.98
2022-10-22T07:17:08.151Z,20.98
2022-10-22T07:22:09.686Z,23.60
2022-10-22T07:27:11.899Z,22.55
2022-10-22T07:32:13.519Z,21.08
2022-10-22T07:37:15.048Z,27.25
2022-10-22T07:42:16.776Z,22.13
2022-10-22T07:47:18.351Z,20.38
2022-10-22T07:52:19.859Z,19.80
2022-10-22T07:57:21.372Z,18.67
2022-10-22T08:02:22.863Z,23.67
2022-10-22T08:07:24.368Z,20.33
2022-10-22T08:12:26.529Z,22.48
2022-10-22T08:17:28.277Z,22.67
2022-10-22T08:22:29.774Z,21.67
2022-10-22T08:27:31.247Z,22.67
2022-10-22T08:32:32.780Z,20.80
2022-10-22T08:37:34.435Z,16.98
2022-10-22T08:42:58.945Z,19.10
2022-10-22T08:48:06.447Z,15.65
2022-10-22T08:53:17.613Z,17.50
2022-10-22T08:58:34.192Z,16.52
2022-10-22T09:03:57.650Z,16.98
2022-10-22T09:09:00.333Z,16.73
2022-10-22T09:14:02.941Z,14.88
2022-10-22T09:19:28.864Z,15.15
2022-10-22T09:24:40.298Z,14.77
2022-10-22T09:29:41.914Z,13.48
2022-10-22T09:34:47.912Z,15.35
2022-10-22T09:39:52.402Z,13.35
2022-10-22T09:44:58.046Z,12.77
2022-10-22T09:50:18.159Z,12.73
2022-10-22T09:55:19.929Z,12.32
2022-10-22T10:00:24.930Z,13.82
2022-10-22T10:05:32.010Z,13.88
2022-10-22T10:10:50.237Z,11.98
2022-10-22T10:16:17.830Z,12.18
2022-10-22T10:21:45.021Z,11.35
2022-10-22T10:26:48.690Z,13.00
2022-10-22T10:32:27.738Z,10.40
2022-10-22T10:37:40.762Z,10.73
2022-10-22T10:43:13.936Z,9.82
2022-10-22T10:48:27.610Z,9.20
2022-10-22T10:53:51.410Z,9.27
2022-10-22T10:59:04.149Z,9.32
2022-10-22T11:04:24.149Z,8.23
2022-10-22T11:09:33.494Z,8.32
2022-10-22T11:14:53.217Z,8.30
2022-10-22T11:20:05.015Z,8.82
2022-10-22T11:25:06.613Z,10.68
2022-10-22T11:30:19.877Z,7.97
2022-10-22T11:35:27.123Z,10.80
2022-10-22T11:40:28.634Z,7.50
2022-10-22T11:45:35.038Z,8.35
2022-10-22T11:50:54.249Z,7.63
2022-10-22T11:56:07.961Z,7.20
2022-10-22T12:01:09.389Z,7.80
2022-10-22T12:06:15.393Z,6.93
2022-10-22T12:11:25.205Z,6.63
2022-10-22T12:16:37.709Z,6.88
2022-10-22T12:22:08.034Z,6.25
2022-10-22T12:27:24.735Z,6.63
2022-10-22T12:32:37.393Z,6.60
2022-10-22T12:37:39.116Z,7.13
2022-10-22T12:42:47.982Z,7.00
2022-10-22T12:47:56.798Z,7.13
2022-10-22T12:52:58.861Z,6.30
2022-10-22T12:58:00.437Z,6.65
2022-10-22T13:03:05.645Z,6.15
2022-10-22T13:08:17.382Z,7.03
2022-10-22T13:13:48.518Z,6.15
2022-10-22T13:18:51.726Z,6.38
2022-10-22T13:23:55.155Z,6.18
2022-10-22T13:28:58.104Z,4.55
2022-10-22T13:34:05.025Z,2.45
2022-10-22T13:39:17.424Z,1.25
2022-10-22T13:44:19.840Z,1.85
2022-10-22T13:49:23.383Z,1.60
2022-10-22T13:54:25.025Z,2.45
2022-10-22T13:59:26.514Z,2.22
2022-10-22T14:04:28.101Z,3.35
2022-10-22T14:09:29.636Z,1.17
2022-10-22T14:14:31.130Z,2.95
2022-10-22T14:19:32.657Z,1.58
2022-10-22T14:24:34.193Z,1.40
2022-10-22T14:29:35.704Z,1.83
2022-10-22T14:34:37.185Z,2.88
2022-10-22T14:39:39.549Z,0.90
2022-10-22T14:44:41.196Z,2.63
2022-10-22T14:49:42.700Z,2.75
2022-10-22T14:54:44.236Z,1.52
2022-10-22T14:59:45.793Z,1.20
2022-10-22T15:04:48.454Z,1.35
2022-10-22T15:09:50.396Z,1.70
2022-10-22T15:14:51.977Z,1.05
2022-10-22T15:19:53.865Z,1.27
2022-10-22T15:24:55.348Z,1.05
2022-10-22T15:29:58.913Z,1.30
2022-10-22T15:35:01.730Z,1.83
2022-10-22T15:40:05.353Z,1.60
2022-10-22T15:45:07.410Z,1.52
2022-10-22T15:50:09.061Z,1.33
2022-10-22T16:00:17.865Z,1.35
2022-10-22T16:05:19.976Z,1.98
2022-10-22T16:10:21.487Z,2.05
2022-10-22T16:15:22.968Z,1.73
2022-10-22T16:20:24.481Z,1.60
2022-10-22T16:25:26.083Z,5.78
2022-10-22T16:30:27.624Z,6.18
2022-10-22T16:35:29.940Z,8.02
2022-10-22T16:40:31.560Z,8.73
2022-10-22T16:45:33.199Z,8.50
2022-10-22T16:50:34.740Z,9.55
2022-10-22T16:55:37.368Z,10.77
2022-10-22T17:00:42.119Z,12.82
2022-10-22T17:05:43.620Z,15.07
2022-10-22T17:10:45.156Z,15.07
2022-10-22T17:15:46.728Z,13.35
2022-10-22T17:20:48.266Z,16.42
2022-10-22T17:25:49.742Z,18.45
2022-10-22T17:30:51.318Z,16.85
2022-10-22T17:35:52.794Z,17.13
2022-10-22T17:40:54.591Z,17.73
2022-10-22T17:46:26.015Z,18.00
2022-10-22T17:51:29.203Z,17.58
2022-10-22T17:56:30.785Z,19.42
2022-10-22T18:01:34.760Z,17.85
2022-10-22T18:06:36.359Z,17.63
2022-10-22T18:11:38.814Z,20.95
2022-10-22T18:16:40.348Z,18.33
2022-10-22T18:21:41.852Z,20.42
2022-10-22T18:26:43.637Z,19.58
2022-10-22T18:31:45.560Z,18.13
2022-10-22T18:36:47.074Z,21.55
2022-10-22T18:41:48.738Z,18.50
2022-10-22T18:46:50.495Z,21.65
2022-10-22T18:51:54.731Z,18.63
2022-10-22T18:57:02.515Z,19.05
2022-10-22T19:02:04.520Z,20.65
2022-10-22T19:07:06.205Z,18.80
2022-10-22T19:12:08.987Z,18.52
2022-10-22T19:17:10.526Z,18.38
2022-10-22T19:22:12.843Z,17.17
2022-10-22T19:27:14.369Z,17.58
2022-10-22T19:32:17.571Z,17.98
2022-10-22T19:37:19.179Z,19.25
2022-10-22T19:42:20.841Z,18.30
2022-10-22T19:47:22.382Z,19.60
2022-10-22T19:52:23.925Z,18.75
2022-10-22T19:57:25.475Z,16.83
2022-10-22T20:02:26.965Z,18.38
2022-10-22T20:07:29.161Z,16.15
2022-10-22T20:12:30.649Z,14.77
2022-10-22T20:17:32.283Z,11.68
2022-10-22T20:22:33.760Z,13.02
2022-10-22T20:27:35.287Z,12.75
2022-10-22T20:32:38.142Z,13.38
2022-10-22T20:37:39.674Z,13.02
2022-10-22T20:42:41.343Z,10.50
2022-10-22T20:47:51.296Z,10.50
2022-10-22T20:52:53.518Z,13.23
2022-10-22T20:57:55.189Z,13.38
2022-10-22T21:02:56.805Z,11.93
2022-10-22T21:07:58.509Z,11.93
2022-10-22T21:12:59.991Z,9.77
2022-10-22T21:18:01.507Z,9.48
2022-10-22T21:23:03.024Z,12.63
2022-10-22T21:28:04.693Z,9.77
2022-10-22T21:33:06.168Z,10.88
2022-10-22T21:38:07.941Z,10.20
2022-10-22T21:43:09.517Z,10.88
2022-10-22T21:48:12.580Z,10.05
2022-10-22T21:53:14.125Z,9.60
2022-10-22T21:58:15.619Z,10.70
2022-10-22T22:03:17.133Z,8.98
2022-10-22T22:08:18.872Z,8.38
2022-10-22T22:13:24.840Z,10.18
2022-10-22T22:18:26.358Z,9.73
2022-10-22T22:23:27.910Z,9.60
2022-10-22T22:28:30.408Z,8.27
2022-10-22T22:33:31.900Z,8.55
2022-10-22T22:38:33.463Z,8.57
2022-10-22T22:43:35.810Z,11.02
2022-10-22T22:48:37.374Z,11.80
2022-10-22T22:53:38.939Z,8.18
2022-10-22T22:58:41.217Z,9.15
2022-10-22T23:03:44.222Z,9.98
2022-10-22T23:08:49.282Z,9.18
2022-10-22T23:14:02.951Z,8.30
2022-10-22T23:19:05.136Z,8.88
2022-10-22T23:24:09.005Z,10.05
2022-10-22T23:29:13.620Z,8.43
2022-10-22T23:39:22.109Z,7.38
2022-10-22T23:44:24.351Z,6.97
2022-10-22T23:49:25.866Z,7.90
2022-10-22T23:54:27.686Z,7.25
2022-10-22T23:59:29.209Z,7.38
